Mill Village, Vermont
Current Conditions -  °F | °C
As of 3:54 PM on Thursday 27 Nov 2014 (Local Time) from KMVL Reporting Station
Overcast Overcast  
Wind Chill: 20°   Ceiling: 2700
Heat Index: 27°   Visibility: 10mi
Dew Point: 20°   Wind: 6mph
Humidity: 75%   Direction: 20°NNE
Pressure: 30.01"   Gusts: NA
Location:  44.6584°N, 72.4169°W
Report Text: KMVL 272054Z AUTO 02005KT 10SM OVC027 M03/M07 A3001 RMK AO2 SLP172 T10281067 51006 TSNO
Loading
Personal Weather Stations






























Interactive Weather Map New forecast layout! Learn more

10-Day Weather Forecast

Advertisements
Track Severe Weather on mobile